createdAt,value
2019-03-10T00:02:24.291Z,97974.88
2019-03-10T00:04:55.174Z,97985.32
2019-03-10T00:07:26.115Z,97981.90
2019-03-10T00:09:57.148Z,97980.45
2019-03-10T00:12:28.250Z,97992.28
2019-03-10T00:14:59.366Z,97982.53
2019-03-10T00:17:30.309Z,97976.81
2019-03-10T00:20:01.272Z,97955.52
2019-03-10T00:22:32.303Z,97955.75
2019-03-10T00:25:03.478Z,97950.27
2019-03-10T00:27:34.508Z,97949.56
2019-03-10T00:30:14.190Z,97950.92
2019-03-10T00:32:45.171Z,97956.78
2019-03-10T00:35:16.225Z,97958.81
2019-03-10T00:37:47.222Z,97935.53
2019-03-10T00:40:40.959Z,97941.52
2019-03-10T00:43:48.363Z,97946.52
2019-03-10T00:46:55.583Z,97937.03
2019-03-10T00:49:45.992Z,97949.39
2019-03-10T00:52:20.670Z,97925.19
2019-03-10T00:54:51.816Z,97927.11
2019-03-10T00:57:22.876Z,97919.06
2019-03-10T00:59:53.960Z,97905.87
2019-03-10T01:02:24.856Z,97909.39
2019-03-10T01:04:55.847Z,97896.19
2019-03-10T01:07:26.981Z,97906.55
2019-03-10T01:09:58.024Z,97904.99
2019-03-10T01:12:29.040Z,97903.03
2019-03-10T01:14:59.996Z,97901.02
2019-03-10T01:17:32.425Z,97903.33
2019-03-10T01:20:03.566Z,97901.24
2019-03-10T01:22:35.320Z,97898.37
2019-03-10T01:25:09.164Z,97898.19
2019-03-10T01:27:40.204Z,97884.30
2019-03-10T01:30:16.880Z,97899.06
2019-03-10T01:33:10.406Z,97890.00
2019-03-10T01:35:42.674Z,97884.39
2019-03-10T01:38:13.884Z,97876.12
2019-03-10T01:40:44.928Z,97883.94
2019-03-10T01:43:16.040Z,97863.02
2019-03-10T01:45:46.978Z,97867.77
2019-03-10T01:48:18.084Z,97867.38
2019-03-10T01:50:49.029Z,97863.08
2019-03-10T01:53:25.500Z,97850.57
2019-03-10T01:55:52.629Z,97838.30
2019-03-10T01:58:23.614Z,97845.77
2019-03-10T02:00:54.725Z,97842.48
2019-03-10T02:03:25.668Z,97838.38
2019-03-10T02:05:56.674Z,97835.73
2019-03-10T02:08:27.690Z,97821.89
2019-03-10T02:10:58.729Z,97819.42
2019-03-10T02:13:29.730Z,97825.31
2019-03-10T02:16:00.648Z,97821.89
2019-03-10T02:18:31.648Z,97821.05
2019-03-10T02:21:02.612Z,97814.59
2019-03-10T02:23:33.606Z,97803.17
2019-03-10T02:26:04.704Z,97800.81
2019-03-10T02:28:35.838Z,97805.77
2019-03-10T02:31:06.756Z,97803.85
2019-03-10T02:33:37.798Z,97807.53
2019-03-10T02:36:08.798Z,97798.22
2019-03-10T02:38:39.821Z,97796.81
2019-03-10T02:41:10.739Z,97798.28
2019-03-10T02:43:41.794Z,97799.91
2019-03-10T02:46:12.806Z,97802.06
2019-03-10T02:48:43.695Z,97796.46
2019-03-10T02:51:14.832Z,97798.84
2019-03-10T02:53:45.779Z,97789.98
2019-03-10T02:56:16.879Z,97785.97
2019-03-10T02:58:47.770Z,97781.91
2019-03-10T03:01:18.717Z,97774.35
2019-03-10T03:03:49.759Z,97773.67
2019-03-10T03:06:20.797Z,97763.25
2019-03-10T03:08:51.845Z,97752.34
2019-03-10T03:11:22.819Z,97754.66
2019-03-10T03:13:53.845Z,97752.11
2019-03-10T03:16:24.785Z,97744.89
2019-03-10T03:18:55.742Z,97748.17
2019-03-10T03:21:26.616Z,97747.86
2019-03-10T03:23:57.561Z,97741.91
2019-03-10T03:26:28.433Z,97738.30
2019-03-10T03:28:59.412Z,97731.89
2019-03-10T03:31:30.415Z,97723.63
2019-03-10T03:34:01.435Z,97700.21
2019-03-10T03:36:34.386Z,97694.77
2019-03-10T03:39:17.691Z,97695.39
2019-03-10T03:41:48.954Z,97686.19
2019-03-10T03:44:20.111Z,97685.89
2019-03-10T03:46:51.093Z,97687.12
2019-03-10T03:49:22.264Z,97679.13
2019-03-10T03:51:53.206Z,97685.99
2019-03-10T03:54:24.123Z,97676.98
2019-03-10T03:56:55.062Z,97682.70
2019-03-10T03:59:26.047Z,97675.97
2019-03-10T04:02:04.582Z,97672.84
2019-03-10T04:04:35.793Z,97666.73
2019-03-10T04:07:06.911Z,97668.97
2019-03-10T04:09:37.864Z,97672.58
2019-03-10T04:12:08.821Z,97661.94
2019-03-10T04:14:39.716Z,97659.86
2019-03-10T04:17:10.670Z,97648.05
2019-03-10T04:19:41.938Z,97638.52
2019-03-10T04:22:12.965Z,97640.13
2019-03-10T04:24:43.952Z,97639.12
2019-03-10T04:27:14.821Z,97634.72
2019-03-10T04:29:45.761Z,97629.32
2019-03-10T04:32:16.590Z,97624.96
2019-03-10T04:34:47.537Z,97618.13
2019-03-10T04:37:18.434Z,97612.61
2019-03-10T04:39:49.444Z,97614.91
2019-03-10T04:42:20.398Z,97614.84
2019-03-10T04:44:51.804Z,97602.95
2019-03-10T04:47:22.870Z,97588.61
2019-03-10T04:49:53.812Z,97580.19
2019-03-10T04:52:24.745Z,97572.61
2019-03-10T04:55:03.449Z,97571.90
2019-03-10T04:57:34.296Z,97561.36
2019-03-10T05:00:07.682Z,97542.90
2019-03-10T05:02:38.774Z,97532.95
2019-03-10T05:05:09.826Z,97525.05
2019-03-10T05:07:40.852Z,97522.23
2019-03-10T05:10:11.898Z,97529.09
2019-03-10T05:12:43.032Z,97527.33
2019-03-10T05:15:14.004Z,97521.45
2019-03-10T05:17:44.946Z,97511.50
2019-03-10T05:20:15.844Z,97506.50
2019-03-10T05:22:46.737Z,97503.97
2019-03-10T05:25:23.040Z,97495.59
2019-03-10T05:27:54.072Z,97485.61
2019-03-10T05:30:25.007Z,97481.02
2019-03-10T05:32:55.949Z,97468.31
2019-03-10T05:35:27.000Z,97466.52
2019-03-10T05:37:57.984Z,97465.50
2019-03-10T05:40:28.993Z,97458.52
2019-03-10T05:43:00.084Z,97457.23
2019-03-10T05:45:31.193Z,97451.74
2019-03-10T05:48:02.066Z,97447.83
2019-03-10T05:50:33.133Z,97445.11
2019-03-10T05:53:04.131Z,97450.42
2019-03-10T05:55:35.609Z,97437.89
2019-03-10T05:58:06.779Z,97432.77
2019-03-10T06:00:42.591Z,97437.38
2019-03-10T06:03:10.616Z,97436.09
2019-03-10T06:05:41.576Z,97434.73
2019-03-10T06:08:12.606Z,97429.54
2019-03-10T06:10:43.735Z,97424.34
2019-03-10T06:13:14.701Z,97415.39
2019-03-10T06:15:45.812Z,97423.95
2019-03-10T06:18:16.873Z,97407.42
2019-03-10T06:20:47.912Z,97408.56
2019-03-10T06:23:19.045Z,97407.03
2019-03-10T06:25:50.023Z,97398.61
2019-03-10T06:28:21.020Z,97388.30
2019-03-10T06:30:51.971Z,97393.48
2019-03-10T06:33:23.106Z,97393.61
2019-03-10T06:35:54.412Z,97384.86
2019-03-10T06:38:25.476Z,97374.03
2019-03-10T06:40:56.579Z,97362.02
2019-03-10T06:43:31.067Z,97358.45
2019-03-10T06:46:02.179Z,97356.44
2019-03-10T06:48:33.492Z,97353.91
2019-03-10T06:51:04.791Z,97344.77
2019-03-10T06:53:35.693Z,97340.75
2019-03-10T06:56:06.997Z,97320.45
2019-03-10T06:58:38.063Z,97318.48
2019-03-10T07:01:08.164Z,97320.55
2019-03-10T07:03:39.342Z,97321.40
2019-03-10T07:06:10.271Z,97315.63
2019-03-10T07:08:41.777Z,97316.60
2019-03-10T07:11:12.656Z,97313.39
2019-03-10T07:13:43.862Z,97308.36
2019-03-10T07:16:14.901Z,97312.84
2019-03-10T07:18:46.354Z,97291.69
2019-03-10T07:21:17.395Z,97295.58
2019-03-10T07:23:48.645Z,97288.14
2019-03-10T07:26:19.533Z,97285.03
2019-03-10T07:28:55.108Z,97275.66
2019-03-10T07:31:39.889Z,97274.47
2019-03-10T07:34:15.620Z,97269.16
2019-03-10T07:36:54.267Z,97271.75
2019-03-10T07:39:31.707Z,97265.48
2019-03-10T07:42:07.303Z,97273.14
2019-03-10T07:44:51.351Z,97267.36
2019-03-10T07:47:39.004Z,97269.05
2019-03-10T07:50:16.793Z,97268.98
2019-03-10T07:52:52.835Z,97239.41
2019-03-10T07:55:25.594Z,97247.13
2019-03-10T07:58:10.597Z,97229.61
2019-03-10T08:00:43.381Z,97213.27
2019-03-10T08:03:16.334Z,97208.92
2019-03-10T08:05:56.747Z,97207.12
2019-03-10T08:08:29.596Z,97199.22
2019-03-10T08:11:12.349Z,97194.51
2019-03-10T08:13:51.044Z,97203.95
2019-03-10T08:16:32.325Z,97188.23
2019-03-10T08:19:14.237Z,97179.02
2019-03-10T08:22:05.034Z,97174.41
2019-03-10T08:24:40.789Z,97178.56
2019-03-10T08:27:13.501Z,97179.69
2019-03-10T08:29:46.414Z,97175.50
2019-03-10T08:32:37.339Z,97178.78
2019-03-10T08:35:19.287Z,97151.97
2019-03-10T08:38:00.909Z,97168.33
2019-03-10T08:40:42.738Z,97168.70
2019-03-10T08:43:18.338Z,97165.28
2019-03-10T08:46:00.637Z,97159.12
2019-03-10T08:48:35.005Z,97142.15
2019-03-10T08:51:10.694Z,97133.52
2019-03-10T08:53:52.042Z,97122.61
2019-03-10T08:56:27.635Z,97126.30
2019-03-10T08:59:16.424Z,97144.20
2019-03-10T09:02:08.086Z,97151.59
2019-03-10T09:04:43.680Z,97148.95
2019-03-10T09:07:16.658Z,97157.19
2019-03-10T09:10:05.413Z,97145.42
2019-03-10T09:12:50.174Z,97142.46
2019-03-10T09:15:25.411Z,97133.06
2019-03-10T09:18:07.040Z,97132.22
2019-03-10T09:20:54.707Z,97128.53
2019-03-10T09:23:36.544Z,97104.30
2019-03-10T09:26:17.536Z,97096.20
2019-03-10T09:28:50.464Z,97083.13
2019-03-10T09:31:31.939Z,97073.13
2019-03-10T09:34:04.759Z,97069.23
2019-03-10T09:36:37.311Z,97064.84
2019-03-10T09:39:09.513Z,97056.75
2019-03-10T09:41:51.110Z,97050.01
2019-03-10T09:44:25.475Z,97040.60
2019-03-10T09:47:00.760Z,97031.14
2019-03-10T09:49:52.784Z,97022.52
2019-03-10T09:52:34.741Z,97016.80
2019-03-10T09:55:23.941Z,97012.01
2019-03-10T09:57:58.161Z,96994.62
2019-03-10T10:00:43.478Z,97001.52
2019-03-10T10:03:32.704Z,96996.70
2019-03-10T10:06:06.742Z,96990.16
2019-03-10T10:08:39.552Z,96979.60
2019-03-10T10:11:12.300Z,96979.38
2019-03-10T10:13:54.083Z,96980.32
2019-03-10T10:16:29.560Z,96976.05
2019-03-10T10:19:17.344Z,96966.46
2019-03-10T10:21:51.764Z,96985.02
2019-03-10T10:24:25.466Z,96969.69
2019-03-10T10:27:05.558Z,96977.19
2019-03-10T10:29:43.321Z,96964.65
2019-03-10T10:32:17.349Z,96970.19
2019-03-10T10:34:59.072Z,96964.77
2019-03-10T10:37:45.504Z,96957.16
2019-03-10T10:40:25.974Z,96964.68
2019-03-10T10:42:58.716Z,96931.11
2019-03-10T10:45:34.318Z,96953.69
2019-03-10T10:48:08.646Z,96959.29
2019-03-10T10:50:41.353Z,96937.87
2019-03-10T10:53:13.960Z,96943.47
2019-03-10T10:55:47.295Z,96942.13
2019-03-10T10:58:25.908Z,96908.34
2019-03-10T11:01:03.429Z,96939.45
2019-03-10T11:03:45.585Z,96935.73
2019-03-10T11:06:19.680Z,96920.78
2019-03-10T11:09:02.842Z,96920.09
2019-03-10T11:11:34.527Z,96913.95
2019-03-10T11:14:17.006Z,96905.13
2019-03-10T11:17:06.359Z,96901.92
2019-03-10T11:19:41.821Z,96895.52
2019-03-10T11:22:20.429Z,96897.70
2019-03-10T11:24:53.583Z,96880.10
2019-03-10T11:27:44.499Z,96901.41
2019-03-10T11:30:17.755Z,96876.63
2019-03-10T11:32:50.361Z,96879.38
2019-03-10T11:35:23.188Z,96867.78
2019-03-10T11:37:58.212Z,96851.59
2019-03-10T11:40:31.043Z,96853.64
2019-03-10T11:43:03.588Z,96837.33
2019-03-10T11:45:54.884Z,96839.89
2019-03-10T11:48:42.905Z,96819.08
2019-03-10T11:51:15.917Z,96830.72
2019-03-10T11:53:50.323Z,96820.80
2019-03-10T11:56:23.151Z,96831.97
2019-03-10T11:59:14.160Z,96807.48
2019-03-10T12:01:46.771Z,96827.64
2019-03-10T12:04:19.346Z,96822.58
2019-03-10T12:07:01.397Z,96822.16
2019-03-10T12:09:32.396Z,96787.06
2019-03-10T12:12:03.901Z,96810.78
2019-03-10T12:14:34.837Z,96780.30
2019-03-10T12:17:05.028Z,96761.81
2019-03-10T12:19:36.387Z,96773.47
2019-03-10T12:22:07.606Z,96776.64
2019-03-10T12:24:38.771Z,96767.05
2019-03-10T12:27:09.671Z,96764.60
2019-03-10T12:29:40.897Z,96759.33
2019-03-10T12:32:11.954Z,96755.70
2019-03-10T12:34:43.159Z,96739.87
2019-03-10T12:37:14.177Z,96748.45
2019-03-10T12:39:46.022Z,96822.28
2019-03-10T12:42:16.991Z,96733.64
2019-03-10T12:44:48.107Z,96726.34
2019-03-10T12:47:19.101Z,96737.31
2019-03-10T12:49:49.250Z,96734.86
2019-03-10T12:52:21.010Z,96736.73
2019-03-10T12:54:51.979Z,96735.33
2019-03-10T12:57:23.092Z,96754.02
2019-03-10T12:59:54.085Z,96755.06
2019-03-10T13:02:25.231Z,96757.98
2019-03-10T13:04:56.307Z,96737.63
2019-03-10T13:07:27.431Z,96698.36
2019-03-10T13:09:58.329Z,96721.91
2019-03-10T13:12:29.627Z,96714.94
2019-03-10T13:15:00.656Z,96735.41
2019-03-10T13:17:31.902Z,96732.17
2019-03-10T13:20:02.810Z,96782.05
2019-03-10T13:22:32.872Z,96720.25
2019-03-10T13:25:05.195Z,96783.64
2019-03-10T13:27:36.181Z,96707.89
2019-03-10T13:30:10.653Z,96745.62
2019-03-10T13:32:44.166Z,96739.55
2019-03-10T13:35:14.509Z,96696.81
2019-03-10T13:37:45.579Z,96672.47
2019-03-10T13:40:16.839Z,96780.88
2019-03-10T13:42:47.863Z,96695.38
2019-03-10T13:45:19.649Z,96691.67
2019-03-10T13:47:50.700Z,96716.55
2019-03-10T13:50:21.974Z,96710.52
2019-03-10T13:52:53.011Z,96753.23
2019-03-10T13:55:24.347Z,96679.56
2019-03-10T13:57:55.404Z,96742.98
2019-03-10T14:00:26.486Z,96749.17
2019-03-10T14:02:57.668Z,96778.43
2019-03-10T14:05:28.627Z,96722.14
2019-03-10T14:07:59.863Z,96778.86
2019-03-10T14:10:30.834Z,96763.14
2019-03-10T14:13:02.147Z,96838.03
2019-03-10T14:15:33.282Z,96755.98
2019-03-10T14:18:05.909Z,96796.90
2019-03-10T14:20:36.788Z,96781.92
2019-03-10T14:23:07.987Z,96770.41
2019-03-10T14:25:38.979Z,96781.72
2019-03-10T14:28:10.275Z,96764.22
2019-03-10T14:30:41.451Z,96833.19
2019-03-10T14:33:11.580Z,96828.67
2019-03-10T14:35:42.741Z,96778.34
2019-03-10T14:38:13.767Z,96858.91
2019-03-10T14:40:45.086Z,96833.55
2019-03-10T14:43:16.127Z,96790.63
2019-03-10T14:45:47.266Z,96820.28
2019-03-10T14:48:18.449Z,96821.38
2019-03-10T14:50:49.681Z,96812.93
2019-03-10T14:53:20.752Z,96779.50
2019-03-10T14:56:43.879Z,96847.38
2019-03-10T14:59:09.561Z,96836.52
2019-03-10T15:01:40.978Z,96825.81
2019-03-10T15:04:11.975Z,96848.13
2019-03-10T15:06:43.371Z,96832.41
2019-03-10T15:09:14.289Z,96826.05
2019-03-10T15:11:45.498Z,96809.02
2019-03-10T15:14:16.440Z,96784.22
2019-03-10T15:16:46.606Z,96819.64
2019-03-10T15:19:17.836Z,96811.97
2019-03-10T15:21:48.874Z,96818.53
2019-03-10T15:24:20.344Z,96825.38
2019-03-10T15:26:51.265Z,96857.80
2019-03-10T15:29:22.428Z,96792.48
2019-03-10T15:31:53.489Z,96758.08
2019-03-10T15:34:24.826Z,96842.16
2019-03-10T15:36:56.295Z,96826.30
2019-03-10T15:39:27.735Z,96861.34
2019-03-10T15:41:58.638Z,96845.12
2019-03-10T15:44:29.880Z,96824.97
2019-03-10T15:47:00.818Z,96851.27
2019-03-10T15:49:30.844Z,96821.27
2019-03-10T15:52:02.338Z,96889.03
2019-03-10T15:54:33.328Z,96900.23
2019-03-10T15:57:04.622Z,96827.49
2019-03-10T15:59:35.799Z,96892.23
2019-03-10T16:02:07.175Z,96966.80
2019-03-10T16:04:38.306Z,96880.95
2019-03-10T16:07:09.470Z,96894.55
2019-03-10T16:09:40.571Z,96860.71
2019-03-10T16:12:11.725Z,96863.38
2019-03-10T16:14:42.705Z,96887.11
2019-03-10T16:17:14.051Z,96959.78
2019-03-10T16:19:45.113Z,96904.80
2019-03-10T16:22:16.303Z,96945.26
2019-03-10T16:24:47.284Z,96957.79
2019-03-10T16:27:17.630Z,96922.00
2019-03-10T16:29:48.831Z,96875.39
2019-03-10T16:32:19.916Z,96907.88
2019-03-10T16:34:51.467Z,96957.99
2019-03-10T16:37:22.347Z,96949.23
2019-03-10T16:39:53.516Z,96960.77
2019-03-10T16:42:24.490Z,96970.45
2019-03-10T16:44:55.782Z,96974.05
2019-03-10T16:47:26.752Z,96995.30
2019-03-10T16:49:57.970Z,96998.58
2019-03-10T16:52:29.189Z,97002.09
2019-03-10T16:55:00.520Z,96973.23
2019-03-10T16:57:31.727Z,97000.16
2019-03-10T17:00:02.155Z,97068.67
2019-03-10T17:02:34.578Z,97044.09
2019-03-10T17:05:08.682Z,97017.48
2019-03-10T17:07:39.707Z,97080.73
2019-03-10T17:10:13.867Z,97025.03
2019-03-10T17:12:44.953Z,97066.66
2019-03-10T17:15:18.496Z,97052.67
2019-03-10T17:17:49.818Z,97063.80
2019-03-10T17:20:20.911Z,97009.28
2019-03-10T17:22:51.863Z,97070.34
2019-03-10T17:25:22.907Z,97097.38
2019-03-10T17:27:53.936Z,97087.30
2019-03-10T17:30:47.080Z,97034.66
2019-03-10T17:41:05.037Z,97066.94
2019-03-10T17:43:36.034Z,97127.14
2019-03-10T17:46:07.967Z,97137.11
2019-03-10T17:48:39.273Z,97157.60
2019-03-10T17:51:10.207Z,97151.37
2019-03-10T17:53:42.053Z,97165.05
2019-03-10T17:56:13.185Z,97179.57
2019-03-10T17:58:44.714Z,97152.56
2019-03-10T18:01:15.655Z,97252.67
2019-03-10T18:03:46.680Z,97228.64
2019-03-10T18:06:17.733Z,97244.36
2019-03-10T18:08:49.225Z,97185.98
2019-03-10T18:11:22.311Z,97242.64
2019-03-10T18:13:53.129Z,97267.30
2019-03-10T18:16:24.045Z,97202.60
2019-03-10T18:18:55.311Z,97214.79
2019-03-10T18:21:26.375Z,97296.22
2019-03-10T18:23:57.402Z,97201.92
2019-03-10T18:26:28.792Z,97275.84
2019-03-10T18:28:59.762Z,97273.90
2019-03-10T18:31:30.881Z,97266.89
2019-03-10T18:34:01.804Z,97267.52
2019-03-10T18:37:07.093Z,97236.33
2019-03-10T18:39:46.892Z,97271.13
2019-03-10T18:42:19.416Z,97300.14
2019-03-10T18:44:50.357Z,97294.36
2019-03-10T18:47:24.244Z,97303.94
2019-03-10T18:49:55.653Z,97302.87
2019-03-10T18:52:26.739Z,97257.59
2019-03-10T18:55:00.421Z,97295.78
2019-03-10T18:57:31.441Z,97307.20
2019-03-10T19:00:02.418Z,97313.59
2019-03-10T19:02:33.477Z,97325.08
2019-03-10T19:05:05.821Z,97275.82
2019-03-10T19:07:36.935Z,97330.63
2019-03-10T19:10:10.474Z,97342.34
2019-03-10T19:12:41.608Z,97344.11
2019-03-10T19:15:20.780Z,97397.50
2019-03-10T19:17:52.004Z,97420.42
2019-03-10T19:20:23.058Z,97394.04
2019-03-10T19:22:54.156Z,97383.11
2019-03-10T19:25:25.464Z,97401.77
2019-03-10T19:27:56.524Z,97422.11
2019-03-10T19:30:27.503Z,97433.07
2019-03-10T19:32:58.548Z,97447.43
2019-03-10T19:35:29.673Z,97456.33
2019-03-10T19:38:01.122Z,97442.59
2019-03-10T19:40:32.306Z,97414.32
2019-03-10T19:43:03.210Z,97454.61
2019-03-10T19:45:34.190Z,97394.16
2019-03-10T19:48:05.365Z,97464.83
2019-03-10T19:50:37.116Z,97468.13
2019-03-10T19:53:08.113Z,97462.59
2019-03-10T19:55:39.295Z,97474.28
2019-03-10T19:58:11.076Z,97466.94
2019-03-10T20:00:42.036Z,97431.63
2019-03-10T20:03:13.082Z,97463.37
2019-03-10T20:05:44.271Z,97493.17
2019-03-10T20:08:15.358Z,97493.70
2019-03-10T20:10:46.381Z,97500.41
2019-03-10T20:13:17.322Z,97531.05
2019-03-10T20:15:48.207Z,97512.89
2019-03-10T20:18:41.411Z,97537.09
2019-03-10T20:21:23.023Z,97545.61
2019-03-10T20:23:54.025Z,97556.56
2019-03-10T20:26:25.035Z,97568.91
2019-03-10T20:28:56.157Z,97545.55
2019-03-10T20:31:27.155Z,97599.70
2019-03-10T20:33:58.673Z,97678.26
2019-03-10T20:36:29.678Z,97702.29
2019-03-10T20:39:26.423Z,97738.27
2019-03-10T20:42:05.020Z,97732.53
2019-03-10T20:44:31.055Z,97683.29
2019-03-10T20:47:02.118Z,97705.63
2019-03-10T20:49:33.158Z,97725.58
2019-03-10T20:52:04.133Z,97729.05
2019-03-10T20:54:35.077Z,97707.30
2019-03-10T20:57:06.275Z,97709.85
2019-03-10T20:59:37.144Z,97694.50
2019-03-10T21:02:08.217Z,97709.78
2019-03-10T21:04:39.169Z,97717.80
2019-03-10T21:07:10.476Z,97705.53
2019-03-10T21:09:41.631Z,97725.27
2019-03-10T21:12:12.823Z,97747.97
2019-03-10T21:14:43.793Z,97733.62
2019-03-10T21:17:14.733Z,97735.15
2019-03-10T21:19:45.661Z,97773.80
2019-03-10T21:22:16.758Z,97759.78
2019-03-10T21:24:48.515Z,97741.55
2019-03-10T21:27:19.621Z,97737.94
2019-03-10T21:29:50.529Z,97745.09
2019-03-10T21:32:21.654Z,97759.61
2019-03-10T21:34:53.283Z,97801.52
2019-03-10T21:37:24.225Z,97789.45
2019-03-10T21:39:55.125Z,97751.86
2019-03-10T21:42:26.350Z,97797.23
2019-03-10T21:44:58.208Z,97819.25
2019-03-10T21:47:30.111Z,97819.42
2019-03-10T21:50:01.442Z,97820.92
2019-03-10T21:52:32.635Z,97812.86
2019-03-10T21:55:08.317Z,97809.56
2019-03-10T21:57:39.527Z,97844.92
2019-03-10T22:00:18.412Z,97860.80
2019-03-10T22:02:49.508Z,97847.03
2019-03-10T22:05:20.487Z,97856.93
2019-03-10T22:07:51.455Z,97873.31
2019-03-10T22:10:27.556Z,97872.59
2019-03-10T22:12:55.255Z,97876.95
2019-03-10T22:15:26.632Z,97886.52
2019-03-10T22:17:57.827Z,97892.20
2019-03-10T22:20:28.963Z,97897.55
2019-03-10T22:22:59.924Z,97889.05
2019-03-10T22:25:30.905Z,97906.66
2019-03-10T22:28:01.893Z,97904.80
2019-03-10T22:30:32.965Z,97926.66
2019-03-10T22:33:03.823Z,97911.13
2019-03-10T22:35:34.864Z,97917.94
2019-03-10T22:38:06.019Z,97936.08
2019-03-10T22:40:36.980Z,97947.73
2019-03-10T22:43:08.093Z,97948.03
2019-03-10T22:45:39.039Z,97968.28
2019-03-10T22:48:10.277Z,97977.04
2019-03-10T22:50:41.221Z,97946.66
2019-03-10T22:53:12.168Z,97988.58
2019-03-10T22:55:43.132Z,97960.78
2019-03-10T22:58:14.156Z,97991.97
2019-03-10T23:00:46.808Z,97958.55
2019-03-10T23:03:17.883Z,97971.09
2019-03-10T23:05:48.934Z,97962.94
2019-03-10T23:08:19.814Z,97908.73
2019-03-10T23:10:50.772Z,97987.46
2019-03-10T23:13:21.700Z,98000.53
2019-03-10T23:15:52.762Z,97999.70
2019-03-10T23:18:23.738Z,97981.34
2019-03-10T23:20:54.884Z,97984.88
2019-03-10T23:23:26.971Z,97995.23
2019-03-10T23:25:57.946Z,97995.43
2019-03-10T23:28:28.947Z,97989.03
2019-03-10T23:31:02.999Z,97995.05
2019-03-10T23:33:34.037Z,98009.30
2019-03-10T23:36:05.059Z,98003.87
2019-03-10T23:38:36.011Z,98015.16
2019-03-10T23:41:07.065Z,98025.98
2019-03-10T23:43:37.996Z,98035.91
2019-03-10T23:46:08.926Z,98029.56
2019-03-10T23:48:39.974Z,98014.71
2019-03-10T23:51:11.206Z,98016.58
2019-03-10T23:53:42.260Z,98005.48
2019-03-10T23:56:13.220Z,98011.14
2019-03-10T23:58:44.819Z,98003.34
